createdAt,value
2017-05-18T00:00:29.146Z,0
2017-05-18T00:01:39.415Z,0
2017-05-18T00:02:49.678Z,0
2017-05-18T00:03:59.942Z,0
2017-05-18T00:05:10.216Z,0
2017-05-18T00:06:20.159Z,0
2017-05-18T00:07:30.426Z,0
2017-05-18T00:08:40.382Z,0
2017-05-18T00:09:50.646Z,0
2017-05-18T00:11:00.909Z,0
2017-05-18T00:12:11.177Z,0
2017-05-18T00:13:21.442Z,0
2017-05-18T00:14:31.389Z,0
2017-05-18T00:15:41.339Z,0
2017-05-18T00:16:51.600Z,0
2017-05-18T00:18:01.864Z,0
2017-05-18T00:19:11.817Z,0
2017-05-18T00:20:22.081Z,0
2017-05-18T00:21:32.351Z,0
2017-05-18T00:22:42.621Z,0
2017-05-18T00:23:52.571Z,0
2017-05-18T00:25:02.842Z,0
2017-05-18T00:26:13.104Z,0
2017-05-18T00:27:23.416Z,0
2017-05-18T00:28:33.366Z,0
2017-05-18T00:29:43.627Z,0
2017-05-18T00:30:53.893Z,0
2017-05-18T00:32:04.163Z,0
2017-05-18T00:33:14.428Z,0
2017-05-18T00:34:24.693Z,0
2017-05-18T00:35:34.951Z,0
2017-05-18T00:36:45.215Z,0
2017-05-18T00:37:55.498Z,0
2017-05-18T00:39:05.774Z,0
2017-05-18T00:40:15.726Z,0
2017-05-18T00:41:25.983Z,0
2017-05-18T00:42:36.244Z,0
2017-05-18T00:43:46.511Z,0
2017-05-18T00:44:56.770Z,0
2017-05-18T00:46:07.033Z,0
2017-05-18T00:47:16.979Z,0
2017-05-18T00:48:27.256Z,0
2017-05-18T00:49:37.532Z,0
2017-05-18T00:50:47.794Z,0
2017-05-18T00:51:58.057Z,0
2017-05-18T00:53:08.325Z,0
2017-05-18T00:54:18.275Z,0
2017-05-18T00:55:28.535Z,0
2017-05-18T00:56:38.502Z,0
2017-05-18T00:57:48.773Z,0
2017-05-18T00:58:59.037Z,0
2017-05-18T01:00:08.990Z,0
2017-05-18T01:01:18.937Z,0
2017-05-18T01:02:28.890Z,0
2017-05-18T01:03:39.162Z,0
2017-05-18T01:04:49.431Z,0
2017-05-18T01:05:59.699Z,0
2017-05-18T01:07:09.966Z,0
2017-05-18T01:08:19.920Z,0
2017-05-18T01:09:30.192Z,0
2017-05-18T01:10:40.144Z,0
2017-05-18T01:11:50.406Z,0
2017-05-18T01:13:00.357Z,0
2017-05-18T01:14:10.319Z,0
2017-05-18T01:15:20.582Z,0
2017-05-18T01:16:30.846Z,0
2017-05-18T01:17:40.802Z,0
2017-05-18T01:18:51.074Z,0
2017-05-18T01:20:01.342Z,0
2017-05-18T01:21:11.298Z,0
2017-05-18T01:22:21.570Z,0
2017-05-18T01:23:31.210Z,0
2017-05-18T01:24:41.477Z,0
2017-05-18T01:25:51.796Z,0
2017-05-18T01:27:02.065Z,0
2017-05-18T01:28:12.326Z,0
2017-05-18T01:29:22.600Z,0
2017-05-18T01:30:32.867Z,0
2017-05-18T01:31:42.819Z,0
2017-05-18T01:32:53.090Z,0
2017-05-18T01:34:03.372Z,0
2017-05-18T01:35:13.631Z,0
2017-05-18T01:36:23.585Z,0
2017-05-18T01:37:34.059Z,0
2017-05-18T01:38:44.330Z,0
2017-05-18T01:39:54.594Z,0
2017-05-18T01:41:04.860Z,0
2017-05-18T01:42:15.128Z,0
2017-05-18T01:43:25.074Z,0
2017-05-18T01:44:35.358Z,0
2017-05-18T01:45:45.627Z,0
2017-05-18T01:46:55.584Z,0
2017-05-18T01:48:05.550Z,0
2017-05-18T01:49:15.810Z,0
2017-05-18T01:50:25.757Z,0
2017-05-18T01:51:36.025Z,4
2017-05-18T01:52:46.300Z,4
2017-05-18T01:53:56.251Z,4
2017-05-18T01:55:06.513Z,4
2017-05-18T01:56:16.471Z,0
2017-05-18T01:57:26.737Z,0
2017-05-18T01:58:36.732Z,0
2017-05-18T01:59:47.005Z,4
2017-05-18T02:00:57.276Z,4
2017-05-18T02:02:07.230Z,4
2017-05-18T02:03:17.503Z,8
2017-05-18T02:04:27.780Z,4
2017-05-18T02:05:38.049Z,8
2017-05-18T02:06:48.049Z,8
2017-05-18T02:07:58.312Z,8
2017-05-18T02:09:08.587Z,8
2017-05-18T02:10:18.852Z,12
2017-05-18T02:11:28.857Z,12
2017-05-18T02:12:39.126Z,12
2017-05-18T02:13:49.393Z,12
2017-05-18T02:14:59.656Z,12
2017-05-18T02:16:09.607Z,12
2017-05-18T02:17:19.556Z,12
2017-05-18T02:18:29.823Z,12
2017-05-18T02:19:40.097Z,16
2017-05-18T02:20:50.363Z,16
2017-05-18T02:22:00.629Z,16
2017-05-18T02:23:10.600Z,20
2017-05-18T02:24:20.866Z,24
2017-05-18T02:25:31.137Z,24
2017-05-18T02:26:41.404Z,28
2017-05-18T02:27:51.680Z,32
2017-05-18T02:29:01.957Z,36
2017-05-18T02:30:12.233Z,40
2017-05-18T02:31:22.506Z,40
2017-05-18T02:32:32.776Z,44
2017-05-18T02:33:43.041Z,48
2017-05-18T02:34:52.990Z,52
2017-05-18T02:36:03.257Z,60
2017-05-18T02:37:12.894Z,68
2017-05-18T02:38:22.839Z,76
2017-05-18T02:39:33.108Z,80
2017-05-18T02:40:43.069Z,80
2017-05-18T02:41:53.337Z,84
2017-05-18T02:43:03.296Z,84
2017-05-18T02:44:13.571Z,80
2017-05-18T02:45:23.835Z,80
2017-05-18T02:46:34.099Z,80
2017-05-18T02:47:44.366Z,88
2017-05-18T02:48:54.635Z,96
2017-05-18T02:50:04.600Z,96
2017-05-18T02:51:14.871Z,116
2017-05-18T02:52:24.816Z,112
2017-05-18T02:53:35.084Z,112
2017-05-18T02:54:45.043Z,132
2017-05-18T02:55:55.315Z,136
2017-05-18T02:57:05.267Z,128
2017-05-18T02:58:15.534Z,128
2017-05-18T02:59:25.164Z,148
2017-05-18T03:00:35.429Z,160
2017-05-18T03:01:45.687Z,168
2017-05-18T03:02:55.960Z,180
2017-05-18T03:04:06.228Z,220
2017-05-18T03:05:16.494Z,248
2017-05-18T03:06:26.771Z,260
2017-05-18T03:07:37.032Z,304
2017-05-18T03:08:46.987Z,280
2017-05-18T03:09:57.258Z,264
2017-05-18T03:11:07.525Z,248
2017-05-18T03:12:17.798Z,268
2017-05-18T03:13:28.059Z,260
2017-05-18T03:14:38.320Z,276
2017-05-18T03:15:48.582Z,276
2017-05-18T03:16:58.534Z,284
2017-05-18T03:18:08.800Z,264
2017-05-18T03:19:18.754Z,276
2017-05-18T03:20:29.013Z,264
2017-05-18T03:21:39.273Z,268
2017-05-18T03:22:49.540Z,284
2017-05-18T03:23:59.822Z,324
2017-05-18T03:25:10.091Z,328
2017-05-18T03:26:19.725Z,360
2017-05-18T03:27:30.004Z,348
2017-05-18T03:28:40.275Z,336
2017-05-18T03:29:50.542Z,324
2017-05-18T03:31:00.805Z,332
2017-05-18T03:32:10.751Z,372
2017-05-18T03:33:21.012Z,360
2017-05-18T03:34:30.967Z,348
2017-05-18T03:35:41.242Z,328
2017-05-18T03:36:51.508Z,364
2017-05-18T03:38:01.773Z,376
2017-05-18T03:39:12.042Z,328
2017-05-18T03:40:22.306Z,360
2017-05-18T03:41:32.574Z,392
2017-05-18T03:42:42.835Z,412
2017-05-18T03:43:53.109Z,464
2017-05-18T03:45:03.376Z,560
2017-05-18T03:46:13.328Z,564
2017-05-18T03:47:23.300Z,540
2017-05-18T03:48:33.553Z,540
2017-05-18T03:49:43.499Z,468
2017-05-18T03:50:53.761Z,412
2017-05-18T03:52:04.029Z,360
2017-05-18T03:53:14.300Z,368
2017-05-18T03:54:24.564Z,336
2017-05-18T03:55:34.832Z,316
2017-05-18T03:56:45.094Z,348
2017-05-18T03:57:55.362Z,484
2017-05-18T03:59:05.630Z,576
2017-05-18T04:00:15.577Z,616
2017-05-18T04:01:25.533Z,608
2017-05-18T04:02:35.798Z,620
2017-05-18T04:03:46.067Z,744
2017-05-18T04:04:56.326Z,624
2017-05-18T04:06:06.596Z,644
2017-05-18T04:07:16.866Z,680
2017-05-18T04:08:27.142Z,616
2017-05-18T04:09:37.410Z,564
2017-05-18T04:10:47.359Z,552
2017-05-18T04:11:57.622Z,504
2017-05-18T04:13:07.888Z,428
2017-05-18T04:14:18.151Z,388
2017-05-18T04:15:28.101Z,380
2017-05-18T04:16:38.371Z,360
2017-05-18T04:17:48.644Z,456
2017-05-18T04:18:58.914Z,588
2017-05-18T04:20:09.179Z,612
2017-05-18T04:21:19.448Z,596
2017-05-18T04:22:29.712Z,568
2017-05-18T04:23:39.974Z,520
2017-05-18T04:24:50.246Z,828
2017-05-18T04:26:00.503Z,924
2017-05-18T04:27:10.776Z,912
2017-05-18T04:28:21.045Z,936
2017-05-18T04:29:31.310Z,776
2017-05-18T04:30:41.578Z,760
2017-05-18T04:31:51.836Z,776
2017-05-18T04:33:02.109Z,900
2017-05-18T04:34:12.380Z,932
2017-05-18T04:35:22.641Z,952
2017-05-18T04:36:32.906Z,964
2017-05-18T04:37:43.175Z,920
2017-05-18T04:38:53.443Z,848
2017-05-18T04:40:03.407Z,780
2017-05-18T04:41:13.667Z,1008
2017-05-18T04:42:23.937Z,976
2017-05-18T04:43:34.635Z,964
2017-05-18T04:44:44.896Z,880
2017-05-18T04:45:55.165Z,848
2017-05-18T04:47:05.428Z,1096
2017-05-18T04:48:15.384Z,1092
2017-05-18T04:49:25.337Z,1388
2017-05-18T04:50:35.296Z,1392
2017-05-18T04:51:45.556Z,1212
2017-05-18T04:52:55.818Z,1220
2017-05-18T04:54:06.093Z,1212
2017-05-18T04:55:16.356Z,1056
2017-05-18T04:56:26.617Z,904
2017-05-18T04:57:36.882Z,808
2017-05-18T04:58:46.845Z,848
2017-05-18T04:59:57.121Z,728
2017-05-18T05:01:07.381Z,676
2017-05-18T05:02:17.337Z,772
2017-05-18T05:03:27.608Z,808
2017-05-18T05:04:38.075Z,672
2017-05-18T05:05:47.708Z,632
2017-05-18T05:06:57.968Z,596
2017-05-18T05:08:08.238Z,528
2017-05-18T05:09:18.501Z,532
2017-05-18T05:10:29.149Z,576
2017-05-18T05:11:39.412Z,716
2017-05-18T05:12:49.675Z,840
2017-05-18T05:13:59.942Z,884
2017-05-18T05:15:09.889Z,1012
2017-05-18T05:16:19.840Z,944
2017-05-18T05:17:30.112Z,1008
2017-05-18T05:18:40.379Z,1012
2017-05-18T05:19:50.339Z,884
2017-05-18T05:21:00.607Z,668
2017-05-18T05:22:10.265Z,604
2017-05-18T05:23:20.534Z,568
2017-05-18T05:24:30.799Z,648
2017-05-18T05:25:41.063Z,648
2017-05-18T05:26:51.549Z,696
2017-05-18T05:28:01.493Z,840
2017-05-18T05:29:11.961Z,1040
2017-05-18T05:30:22.222Z,1100
2017-05-18T05:31:32.491Z,1252
2017-05-18T05:32:42.762Z,1284
2017-05-18T05:33:53.030Z,1308
2017-05-18T05:35:03.297Z,1300
2017-05-18T05:36:13.251Z,1572
2017-05-18T05:37:23.522Z,1704
2017-05-18T05:38:33.478Z,1620
2017-05-18T05:39:43.421Z,1468
2017-05-18T05:40:53.685Z,1408
2017-05-18T05:42:03.944Z,1436
2017-05-18T05:43:14.213Z,1368
2017-05-18T05:44:24.473Z,1124
2017-05-18T05:45:34.741Z,872
2017-05-18T05:46:45.008Z,756
2017-05-18T05:47:54.643Z,724
2017-05-18T05:49:04.916Z,816
2017-05-18T05:50:14.872Z,764
2017-05-18T05:51:24.838Z,824
2017-05-18T05:52:34.852Z,692
2017-05-18T05:53:45.121Z,504
2017-05-18T05:54:55.391Z,484
2017-05-18T05:56:05.659Z,588
2017-05-18T05:57:15.295Z,776
2017-05-18T05:58:25.566Z,748
2017-05-18T05:59:35.831Z,600
2017-05-18T06:00:46.093Z,608
2017-05-18T06:01:56.358Z,640
2017-05-18T06:03:06.625Z,664
2017-05-18T06:04:16.904Z,676
2017-05-18T06:05:27.167Z,900
2017-05-18T06:06:37.437Z,984
2017-05-18T06:07:47.705Z,872
2017-05-18T06:08:57.980Z,640
2017-05-18T06:10:08.261Z,604
2017-05-18T06:11:17.895Z,776
2017-05-18T06:12:28.156Z,572
2017-05-18T06:13:38.419Z,588
2017-05-18T06:14:48.369Z,816
2017-05-18T06:15:58.631Z,1128
2017-05-18T06:17:08.899Z,1080
2017-05-18T06:18:18.846Z,964
2017-05-18T06:19:29.118Z,1032
2017-05-18T06:20:39.385Z,1052
2017-05-18T06:21:49.650Z,1032
2017-05-18T06:22:59.600Z,820
2017-05-18T06:24:09.861Z,860
2017-05-18T06:25:20.131Z,1032
2017-05-18T06:26:30.391Z,1356
2017-05-18T06:27:40.652Z,2004
2017-05-18T06:28:50.619Z,1584
2017-05-18T06:30:00.912Z,1600
2017-05-18T06:31:10.870Z,1444
2017-05-18T06:32:21.334Z,1052
2017-05-18T06:33:31.604Z,968
2017-05-18T06:34:41.878Z,1232
2017-05-18T06:35:51.829Z,1180
2017-05-18T06:37:02.149Z,772
2017-05-18T06:38:12.429Z,796
2017-05-18T06:39:22.388Z,992
2017-05-18T06:40:32.650Z,1348
2017-05-18T06:41:42.917Z,1524
2017-05-18T06:42:53.178Z,1376
2017-05-18T06:44:03.649Z,1608
2017-05-18T06:45:13.919Z,1672
2017-05-18T06:46:22.929Z,1796
2017-05-18T06:47:32.887Z,1852
2017-05-18T06:48:43.154Z,2320
2017-05-18T06:49:53.428Z,2748
2017-05-18T06:51:03.693Z,2436
2017-05-18T06:52:13.333Z,2580
2017-05-18T06:53:23.305Z,2676
2017-05-18T06:54:33.587Z,2424
2017-05-18T06:55:43.850Z,2356
2017-05-18T06:56:54.122Z,2276
2017-05-18T06:58:04.394Z,2556
2017-05-18T06:59:14.665Z,2332
2017-05-18T07:00:24.924Z,2400
2017-05-18T07:01:35.191Z,2552
2017-05-18T07:02:45.469Z,2436
2017-05-18T07:03:55.420Z,2468
2017-05-18T07:05:05.380Z,2984
2017-05-18T07:06:15.334Z,2988
2017-05-18T07:07:25.594Z,3124
2017-05-18T07:08:35.857Z,3316
2017-05-18T07:09:46.160Z,2868
2017-05-18T07:10:56.432Z,3060
2017-05-18T07:12:06.380Z,2772
2017-05-18T07:13:16.023Z,2196
2017-05-18T07:14:25.976Z,2164
2017-05-18T07:15:36.243Z,2104
2017-05-18T07:16:46.509Z,2472
2017-05-18T07:17:56.795Z,3228
2017-05-18T07:19:07.057Z,3140
2017-05-18T07:20:17.520Z,2108
2017-05-18T07:21:27.156Z,2384
2017-05-18T07:22:37.427Z,2208
2017-05-18T07:23:47.699Z,1860
2017-05-18T07:24:57.969Z,1456
2017-05-18T07:26:08.233Z,1664
2017-05-18T07:27:18.489Z,1936
2017-05-18T07:28:28.763Z,1816
2017-05-18T07:29:39.030Z,2020
2017-05-18T07:30:49.299Z,1564
2017-05-18T07:31:59.597Z,1580
2017-05-18T07:33:09.863Z,1500
2017-05-18T07:34:20.131Z,1512
2017-05-18T07:35:30.402Z,2068
2017-05-18T07:36:40.716Z,2060
2017-05-18T07:37:50.988Z,2060
2017-05-18T07:39:00.966Z,1908
2017-05-18T07:40:10.612Z,1952
2017-05-18T07:41:20.259Z,1536
2017-05-18T07:42:30.521Z,1428
2017-05-18T07:43:40.163Z,1364
2017-05-18T07:44:50.116Z,1428
2017-05-18T07:46:00.068Z,1312
2017-05-18T07:47:10.026Z,1336
2017-05-18T07:48:20.288Z,1168
2017-05-18T07:49:30.629Z,1276
2017-05-18T07:50:40.896Z,1684
2017-05-18T07:51:51.362Z,2020
2017-05-18T07:53:01.316Z,1544
2017-05-18T07:54:11.266Z,1408
2017-05-18T07:55:20.589Z,1512
2017-05-18T07:56:30.855Z,1720
2017-05-18T07:57:41.126Z,2036
2017-05-18T07:58:51.076Z,1776
2017-05-18T08:00:01.351Z,1580
2017-05-18T08:01:11.303Z,1296
2017-05-18T08:02:21.571Z,1640
2017-05-18T08:03:31.524Z,1884
2017-05-18T08:04:41.796Z,2368
2017-05-18T08:05:52.067Z,3264
2017-05-18T08:07:02.013Z,2644
2017-05-18T08:08:12.541Z,1960
2017-05-18T08:09:22.478Z,1516
2017-05-18T08:10:32.746Z,1672
2017-05-18T08:11:43.008Z,1516
2017-05-18T08:12:52.959Z,1536
2017-05-18T08:14:02.912Z,1980
2017-05-18T08:15:12.551Z,2120
2017-05-18T08:16:22.500Z,1820
2017-05-18T08:17:32.772Z,1664
2017-05-18T08:18:42.944Z,1848
2017-05-18T08:19:53.213Z,2008
2017-05-18T08:21:03.172Z,1788
2017-05-18T08:22:12.812Z,1632
2017-05-18T08:23:22.133Z,1468
2017-05-18T08:24:32.078Z,1632
2017-05-18T08:25:42.029Z,2060
2017-05-18T08:26:52.304Z,2740
2017-05-18T08:28:02.569Z,2584
2017-05-18T08:29:12.522Z,2456
2017-05-18T08:30:22.788Z,2636
2017-05-18T08:31:33.064Z,3132
2017-05-18T08:32:43.021Z,3384
2017-05-18T08:33:53.298Z,3312
2017-05-18T08:35:03.247Z,3548
2017-05-18T08:36:13.201Z,3676
2017-05-18T08:37:23.151Z,3820
2017-05-18T08:38:33.189Z,4168
2017-05-18T08:39:43.139Z,4340
2017-05-18T08:40:53.411Z,4304
2017-05-18T08:42:03.677Z,4092
2017-05-18T08:43:13.942Z,3576
2017-05-18T08:44:23.897Z,3604
2017-05-18T08:45:34.164Z,4464
2017-05-18T08:46:44.430Z,4432
2017-05-18T08:47:54.700Z,3952
2017-05-18T08:49:04.654Z,4348
2017-05-18T08:50:14.618Z,4232
2017-05-18T08:51:24.569Z,3328
2017-05-18T08:52:34.523Z,3564
2017-05-18T08:53:44.485Z,4168
2017-05-18T08:54:54.750Z,4416
2017-05-18T08:56:04.702Z,4196
2017-05-18T08:57:14.655Z,4048
2017-05-18T08:58:24.298Z,3936
2017-05-18T08:59:34.575Z,4376
2017-05-18T09:00:43.896Z,4656
2017-05-18T09:01:54.169Z,5008
2017-05-18T09:03:04.441Z,4836
2017-05-18T09:04:14.716Z,5312
2017-05-18T09:05:24.669Z,5720
2017-05-18T09:06:34.934Z,5316
2017-05-18T09:07:45.249Z,5376
2017-05-18T09:08:55.199Z,5756
2017-05-18T09:10:04.834Z,6788
2017-05-18T09:11:14.164Z,7388
2017-05-18T09:12:24.432Z,7200
2017-05-18T09:13:34.697Z,7124
2017-05-18T09:14:44.656Z,7424
2017-05-18T09:15:54.922Z,7824
2017-05-18T09:17:05.184Z,8000
2017-05-18T09:18:15.139Z,9568
2017-05-18T09:19:25.406Z,9760
2017-05-18T09:20:35.674Z,10584
2017-05-18T09:21:45.626Z,11352
2017-05-18T09:22:55.890Z,10572
2017-05-18T09:24:05.849Z,9168
2017-05-18T09:25:15.497Z,9324
2017-05-18T09:26:25.763Z,9344
2017-05-18T09:27:35.726Z,8220
2017-05-18T09:28:45.675Z,7760
2017-05-18T09:29:55.947Z,7936
2017-05-18T09:31:06.220Z,7468
2017-05-18T09:32:16.175Z,6672
2017-05-18T09:33:26.481Z,6640
2017-05-18T09:34:36.128Z,6644
2017-05-18T09:35:46.395Z,7624
2017-05-18T09:36:56.383Z,7204
2017-05-18T09:38:06.665Z,7508
2017-05-18T09:39:16.936Z,6336
2017-05-18T09:40:27.211Z,7096
2017-05-18T09:41:37.478Z,8628
2017-05-18T09:42:47.442Z,7552
2017-05-18T09:43:57.087Z,7172
2017-05-18T09:45:07.361Z,7888
2017-05-18T09:46:17.639Z,9740
2017-05-18T09:47:27.908Z,8980
2017-05-18T09:48:38.182Z,6764
2017-05-18T09:49:48.140Z,5304
2017-05-18T09:50:58.417Z,5140
2017-05-18T09:52:08.062Z,4816
2017-05-18T09:53:18.017Z,4040
2017-05-18T09:54:28.290Z,3132
2017-05-18T09:55:38.562Z,3316
2017-05-18T09:56:48.825Z,3188
2017-05-18T09:57:59.095Z,3072
2017-05-18T09:59:09.362Z,3088
2017-05-18T10:00:19.665Z,3012
2017-05-18T10:01:29.935Z,3616
2017-05-18T10:02:40.211Z,3480
2017-05-18T10:03:50.485Z,3184
2017-05-18T10:05:00.976Z,2736
2017-05-18T10:06:10.932Z,2956
2017-05-18T10:07:20.888Z,2768
2017-05-18T10:08:31.156Z,2940
2017-05-18T10:09:41.430Z,4116
2017-05-18T10:10:51.753Z,3772
2017-05-18T10:12:02.020Z,3460
2017-05-18T10:13:12.297Z,3664
2017-05-18T10:14:22.566Z,3872
2017-05-18T10:15:32.200Z,4808
2017-05-18T10:16:42.466Z,6120
2017-05-18T10:17:52.736Z,4796
2017-05-18T10:19:03.019Z,4076
2017-05-18T10:20:12.964Z,3812
2017-05-18T10:21:22.603Z,3664
2017-05-18T10:22:32.880Z,4208
2017-05-18T10:23:43.158Z,4172
2017-05-18T10:24:53.422Z,4596
2017-05-18T10:26:03.380Z,4060
2017-05-18T10:27:13.641Z,4160
2017-05-18T10:28:23.595Z,3956
2017-05-18T10:29:33.559Z,3672
2017-05-18T10:30:43.826Z,3240
2017-05-18T10:31:54.099Z,3056
2017-05-18T10:33:04.361Z,2808
2017-05-18T10:34:14.002Z,2580
2017-05-18T10:35:23.962Z,2736
2017-05-18T10:36:34.512Z,2532
2017-05-18T10:37:44.462Z,1712
2017-05-18T10:38:54.732Z,1596
2017-05-18T10:40:05.020Z,1392
2017-05-18T10:41:14.656Z,1396
2017-05-18T10:42:23.676Z,1652
2017-05-18T10:43:33.941Z,2168
2017-05-18T10:44:44.217Z,2224
2017-05-18T10:45:54.709Z,1676
2017-05-18T10:47:04.979Z,1636
2017-05-18T10:48:15.245Z,1796
2017-05-18T10:49:25.203Z,1656
2017-05-18T10:50:34.843Z,1704
2017-05-18T10:51:45.120Z,1816
2017-05-18T10:52:55.429Z,1888
2017-05-18T10:54:05.702Z,1792
2017-05-18T10:55:15.651Z,1988
2017-05-18T10:56:25.605Z,2224
2017-05-18T10:57:35.875Z,2972
2017-05-18T10:58:46.360Z,2480
2017-05-18T10:59:56.628Z,2388
2017-05-18T11:01:06.896Z,2256
2017-05-18T11:02:17.170Z,2268
2017-05-18T11:03:27.439Z,1892
2017-05-18T11:04:37.699Z,1820
2017-05-18T11:05:47.661Z,1692
2017-05-18T11:06:57.935Z,1664
2017-05-18T11:08:07.892Z,1640
2017-05-18T11:09:18.170Z,1680
2017-05-18T11:10:28.446Z,1524
2017-05-18T11:11:38.401Z,1564
2017-05-18T11:12:48.056Z,1460
2017-05-18T11:13:58.329Z,1344
2017-05-18T11:15:08.595Z,1376
2017-05-18T11:16:18.913Z,1496
2017-05-18T11:17:29.191Z,1512
2017-05-18T11:18:39.478Z,1740
2017-05-18T11:19:49.751Z,1704
2017-05-18T11:20:59.701Z,1748
2017-05-18T11:22:09.971Z,1716
2017-05-18T11:23:19.938Z,1724
2017-05-18T11:24:30.209Z,1508
2017-05-18T11:25:40.480Z,1700
2017-05-18T11:26:50.749Z,1584
2017-05-18T11:28:01.017Z,1968
2017-05-18T11:29:10.975Z,2156
2017-05-18T11:30:20.621Z,2248
2017-05-18T11:31:30.882Z,2412
2017-05-18T11:32:41.424Z,3032
2017-05-18T11:33:51.678Z,3336
2017-05-18T11:35:02.024Z,2692
2017-05-18T11:36:12.296Z,2132
2017-05-18T11:37:22.246Z,2180
2017-05-18T11:38:32.525Z,2336
2017-05-18T11:39:42.790Z,2156
2017-05-18T11:40:52.740Z,3052
2017-05-18T11:42:03.011Z,2576
2017-05-18T11:43:12.970Z,2244
2017-05-18T11:44:23.235Z,3100
2017-05-18T11:45:35.203Z,3564
2017-05-18T11:46:45.468Z,2980
2017-05-18T11:47:55.424Z,3308
2017-05-18T11:49:04.754Z,3200
2017-05-18T11:50:14.707Z,3240
2017-05-18T11:51:24.972Z,3724
2017-05-18T11:52:34.927Z,4716
2017-05-18T11:53:44.570Z,4144
2017-05-18T11:54:54.840Z,3096
2017-05-18T11:56:04.790Z,2652
2017-05-18T11:57:14.430Z,2488
2017-05-18T11:58:24.695Z,3288
2017-05-18T11:59:34.707Z,3436
2017-05-18T12:00:44.981Z,2776
2017-05-18T12:01:55.247Z,4984
2017-05-18T12:03:05.519Z,5848
2017-05-18T12:04:15.475Z,4760
2017-05-18T12:05:25.946Z,5008
2017-05-18T12:06:36.213Z,6040
2017-05-18T12:07:46.166Z,6036
2017-05-18T12:08:56.118Z,6376
2017-05-18T12:10:06.080Z,6588
2017-05-18T12:11:16.033Z,5912
2017-05-18T12:12:26.307Z,6508
2017-05-18T12:13:36.258Z,6828
2017-05-18T12:14:46.525Z,6220
2017-05-18T12:15:56.793Z,5652
2017-05-18T12:17:06.749Z,5348
2017-05-18T12:18:16.384Z,5280
2017-05-18T12:19:26.652Z,4924
2017-05-18T12:20:36.603Z,4768
2017-05-18T12:21:46.877Z,5296
2017-05-18T12:22:56.516Z,5624
2017-05-18T12:24:06.156Z,6820
2017-05-18T12:25:15.795Z,6092
2017-05-18T12:26:26.067Z,5788
2017-05-18T12:27:36.339Z,5572
2017-05-18T12:28:46.604Z,5392
2017-05-18T12:29:56.874Z,5804
2017-05-18T12:31:06.829Z,6772
2017-05-18T12:32:16.794Z,6808
2017-05-18T12:33:27.062Z,6556
2017-05-18T12:34:37.328Z,6324
2017-05-18T12:35:47.285Z,6576
2017-05-18T12:36:57.560Z,6832
2017-05-18T12:38:07.512Z,6944
2017-05-18T12:39:17.462Z,7632
2017-05-18T12:40:27.726Z,8296
2017-05-18T12:41:37.998Z,8484
2017-05-18T12:42:48.463Z,9024
2017-05-18T12:43:58.731Z,9740
2017-05-18T12:45:09.004Z,8784
2017-05-18T12:46:19.268Z,6908
2017-05-18T12:47:29.533Z,6448
2017-05-18T12:48:39.855Z,7068
2017-05-18T12:49:50.133Z,6648
2017-05-18T12:51:00.086Z,6332
2017-05-18T12:52:10.357Z,5264
2017-05-18T12:53:20.629Z,4048
2017-05-18T12:54:30.892Z,3968
2017-05-18T12:55:40.841Z,4160
2017-05-18T12:56:51.107Z,5112
2017-05-18T12:58:01.375Z,6156
2017-05-18T12:59:11.648Z,6592
2017-05-18T13:00:21.289Z,6932
2017-05-18T13:01:31.242Z,7556
2017-05-18T13:02:41.513Z,7744
2017-05-18T13:03:51.785Z,8236
2017-05-18T13:05:02.064Z,8392
2017-05-18T13:06:12.023Z,7472
2017-05-18T13:07:21.974Z,6064
2017-05-18T13:08:31.931Z,5296
2017-05-18T13:09:42.429Z,5284
2017-05-18T13:10:52.698Z,5232
2017-05-18T13:12:02.654Z,5672
2017-05-18T13:13:12.624Z,5704
2017-05-18T13:14:22.576Z,4392
2017-05-18T13:15:32.849Z,3608
2017-05-18T13:16:42.799Z,3560
2017-05-18T13:17:53.075Z,4072
2017-05-18T13:19:03.345Z,3648
2017-05-18T13:20:13.616Z,3800
2017-05-18T13:21:23.887Z,3744
2017-05-18T13:22:34.154Z,4028
2017-05-18T13:23:44.424Z,4024
2017-05-18T13:24:54.694Z,4040
2017-05-18T13:26:05.012Z,4308
2017-05-18T13:27:15.285Z,4420
2017-05-18T13:28:25.552Z,4540
2017-05-18T13:29:35.515Z,4916
2017-05-18T13:30:45.782Z,5332
2017-05-18T13:31:56.050Z,5648
2017-05-18T13:33:06.316Z,5224
2017-05-18T13:34:16.270Z,5536
2017-05-18T13:35:26.531Z,4912
2017-05-18T13:36:36.482Z,3848
2017-05-18T13:37:46.754Z,3428
2017-05-18T13:38:57.018Z,3616
2017-05-18T13:40:06.975Z,3752
2017-05-18T13:41:17.247Z,3536
2017-05-18T13:42:27.518Z,4344
2017-05-18T13:43:37.794Z,5092
2017-05-18T13:44:47.760Z,4944
2017-05-18T13:45:58.029Z,4832
2017-05-18T13:47:07.670Z,4512
2017-05-18T13:48:17.306Z,3876
2017-05-18T13:49:26.945Z,3920
2017-05-18T13:50:37.211Z,4056
2017-05-18T13:51:47.478Z,3668
2017-05-18T13:52:57.743Z,3296
2017-05-18T13:54:08.004Z,3140
2017-05-18T13:55:18.268Z,2912
2017-05-18T13:56:28.534Z,2944
2017-05-18T13:57:38.801Z,2856
2017-05-18T13:58:49.068Z,2736
2017-05-18T13:59:59.338Z,2744
2017-05-18T14:01:09.603Z,2688
2017-05-18T14:02:19.558Z,2584
2017-05-18T14:03:29.513Z,2300
2017-05-18T14:04:39.774Z,2056
2017-05-18T14:05:50.035Z,2116
2017-05-18T14:07:00.305Z,2184
2017-05-18T14:08:10.637Z,2256
2017-05-18T14:09:20.279Z,2200
2017-05-18T14:10:30.223Z,2184
2017-05-18T14:11:40.490Z,2060
2017-05-18T14:12:50.447Z,1708
2017-05-18T14:14:00.774Z,1620
2017-05-18T14:15:11.051Z,1548
2017-05-18T14:16:21.003Z,1580
2017-05-18T14:17:31.269Z,1568
2017-05-18T14:18:41.548Z,1744
2017-05-18T14:19:51.503Z,2016
2017-05-18T14:21:01.806Z,2228
2017-05-18T14:22:11.753Z,2300
2017-05-18T14:23:21.705Z,2360
2017-05-18T14:24:31.969Z,2352
2017-05-18T14:25:41.921Z,2656
2017-05-18T14:26:51.877Z,2652
2017-05-18T14:28:01.831Z,2448
2017-05-18T14:29:11.787Z,2480
2017-05-18T14:30:21.737Z,2416
2017-05-18T14:31:31.694Z,2380
2017-05-18T14:32:41.646Z,2380
2017-05-18T14:33:51.603Z,2328
2017-05-18T14:35:01.884Z,2192
2017-05-18T14:36:12.153Z,2028
2017-05-18T14:37:21.792Z,1892
2017-05-18T14:38:32.061Z,1936
2017-05-18T14:39:42.330Z,1948
2017-05-18T14:40:52.600Z,1912
2017-05-18T14:42:02.864Z,1804
2017-05-18T14:43:13.137Z,1744
2017-05-18T14:44:22.784Z,1772
2017-05-18T14:45:32.742Z,1856
2017-05-18T14:46:43.020Z,1924
2017-05-18T14:47:53.292Z,1988
2017-05-18T14:49:03.563Z,2016
2017-05-18T14:50:13.524Z,2092
2017-05-18T14:51:23.799Z,2124
2017-05-18T14:52:34.115Z,1884
2017-05-18T14:53:44.394Z,1820
2017-05-18T14:54:54.660Z,1952
2017-05-18T14:56:04.933Z,1936
2017-05-18T14:57:15.262Z,1916
2017-05-18T14:58:25.529Z,1936
2017-05-18T14:59:35.180Z,2168
2017-05-18T15:00:45.133Z,2448
2017-05-18T15:01:54.772Z,2452
2017-05-18T15:03:05.047Z,2380
2017-05-18T15:04:14.686Z,2272
2017-05-18T15:05:24.692Z,2224
2017-05-18T15:06:34.966Z,2284
2017-05-18T15:07:45.289Z,2388
2017-05-18T15:08:55.551Z,2452
2017-05-18T15:10:06.126Z,2492
2017-05-18T15:11:15.766Z,2532
2017-05-18T15:12:26.031Z,2480
2017-05-18T15:13:36.299Z,2536
2017-05-18T15:14:46.562Z,2644
2017-05-18T15:15:57.078Z,2740
2017-05-18T15:17:07.034Z,2744
2017-05-18T15:18:17.300Z,2708
2017-05-18T15:19:27.256Z,2540
2017-05-18T15:20:37.525Z,2356
2017-05-18T15:21:47.678Z,2208
2017-05-18T15:22:57.950Z,2084
2017-05-18T15:24:08.218Z,1932
2017-05-18T15:25:18.488Z,1912
2017-05-18T15:26:28.755Z,1936
2017-05-18T15:27:41.280Z,2048
2017-05-18T15:28:51.553Z,2112
2017-05-18T15:30:01.835Z,2044
2017-05-18T15:31:12.104Z,2116
2017-05-18T15:32:22.122Z,2092
2017-05-18T15:33:36.313Z,2004
2017-05-18T15:34:46.581Z,2112
2017-05-18T15:35:56.845Z,2008
2017-05-18T15:37:07.110Z,2024
2017-05-18T15:38:17.076Z,2072
2017-05-18T15:39:27.542Z,2012
2017-05-18T15:40:37.811Z,1868
2017-05-18T15:41:47.768Z,1828
2017-05-18T15:42:58.036Z,1932
2017-05-18T15:44:08.304Z,1960
2017-05-18T15:45:18.560Z,1996
2017-05-18T15:46:28.835Z,1940
2017-05-18T15:47:39.107Z,2084
2017-05-18T15:48:49.379Z,2200
2017-05-18T15:49:59.662Z,2220
2017-05-18T15:51:09.919Z,2280
2017-05-18T15:52:20.194Z,2424
2017-05-18T15:53:30.465Z,2524
2017-05-18T15:54:40.733Z,2416
2017-05-18T15:55:50.996Z,2516